sensor_id;sensor_type;location;lat;lon;timestamp;temperature;humidity
13606;DHT22;6874;52.084;5.090;2023-03-01T00:01:58;2.10;99.90
13606;DHT22;6874;52.084;5.090;2023-03-01T00:04:24;2.10;99.90
13606;DHT22;6874;52.084;5.090;2023-03-01T00:06:50;2.10;99.90
13606;DHT22;6874;52.084;5.090;2023-03-01T00:09:15;2.10;99.90
13606;DHT22;6874;52.084;5.090;2023-03-01T00:11:41;2.10;99.90
13606;DHT22;6874;52.084;5.090;2023-03-01T00:14:07;2.00;99.90
13606;DHT22;6874;52.084;5.090;2023-03-01T00:16:35;2.00;99.90
13606;DHT22;6874;52.084;5.090;2023-03-01T00:19:01;2.00;99.90
13606;DHT22;6874;52.084;5.090;2023-03-01T00:21:27;2.00;99.90
13606;DHT22;6874;52.084;5.090;2023-03-01T00:23:54;1.90;99.90
13606;DHT22;6874;52.084;5.090;2023-03-01T00:26:23;1.90;99.90
13606;DHT22;6874;52.084;5.090;2023-03-01T00:28:49;1.90;99.90
13606;DHT22;6874;52.084;5.090;2023-03-01T00:31:21;1.90;99.90
13606;DHT22;6874;52.084;5.090;2023-03-01T00:33:47;1.90;99.90
13606;DHT22;6874;52.084;5.090;2023-03-01T00:36:15;1.90;99.90
13606;DHT22;6874;52.084;5.090;2023-03-01T00:38:44;1.90;99.90
13606;DHT22;6874;52.084;5.090;2023-03-01T00:41:15;1.80;99.90
13606;DHT22;6874;52.084;5.090;2023-03-01T00:43:41;1.80;99.90
13606;DHT22;6874;52.084;5.090;2023-03-01T00:46:09;1.80;99.90
13606;DHT22;6874;52.084;5.090;2023-03-01T00:48:35;1.80;99.90
13606;DHT22;6874;52.084;5.090;2023-03-01T00:51:06;1.70;99.90
13606;DHT22;6874;52.084;5.090;2023-03-01T00:53:31;1.70;99.90
13606;DHT22;6874;52.084;5.090;2023-03-01T00:55:58;1.70;99.90
13606;DHT22;6874;52.084;5.090;2023-03-01T00:58:24;1.70;99.90
13606;DHT22;6874;52.084;5.090;2023-03-01T01:00:49;1.60;99.90
13606;DHT22;6874;52.084;5.090;2023-03-01T01:03:15;1.70;99.90
13606;DHT22;6874;52.084;5.090;2023-03-01T01:05:41;1.60;99.90
13606;DHT22;6874;52.084;5.090;2023-03-01T01:08:06;1.60;99.90
13606;DHT22;6874;52.084;5.090;2023-03-01T01:10:34;1.60;99.90
13606;DHT22;6874;52.084;5.090;2023-03-01T01:12:59;1.60;99.90
13606;DHT22;6874;52.084;5.090;2023-03-01T01:15:25;1.50;99.90
13606;DHT22;6874;52.084;5.090;2023-03-01T01:17:50;1.50;99.90
13606;DHT22;6874;52.084;5.090;2023-03-01T01:20:17;1.50;99.90
13606;DHT22;6874;52.084;5.090;2023-03-01T01:22:43;1.50;99.90
13606;DHT22;6874;52.084;5.090;2023-03-01T01:25:08;1.50;99.90
13606;DHT22;6874;52.084;5.090;2023-03-01T01:27:36;1.50;99.90
13606;DHT22;6874;52.084;5.090;2023-03-01T01:30:02;1.40;99.90
13606;DHT22;6874;52.084;5.090;2023-03-01T01:32:29;1.50;99.90
13606;DHT22;6874;52.084;5.090;2023-03-01T01:34:54;1.40;99.90
13606;DHT22;6874;52.084;5.090;2023-03-01T01:37:20;1.40;99.90
13606;DHT22;6874;52.084;5.090;2023-03-01T01:39:45;1.30;99.90
13606;DHT22;6874;52.084;5.090;2023-03-01T01:42:16;1.40;99.90
13606;DHT22;6874;52.084;5.090;2023-03-01T01:44:44;1.30;99.90
13606;DHT22;6874;52.084;5.090;2023-03-01T01:47:22;1.30;99.90
13606;DHT22;6874;52.084;5.090;2023-03-01T01:49:55;1.30;99.90
13606;DHT22;6874;52.084;5.090;2023-03-01T01:52:27;1.30;99.90
13606;DHT22;6874;52.084;5.090;2023-03-01T01:55:05;1.30;99.90
13606;DHT22;6874;52.084;5.090;2023-03-01T01:57:34;1.30;99.90
13606;DHT22;6874;52.084;5.090;2023-03-01T02:00:05;1.20;99.90
13606;DHT22;6874;52.084;5.090;2023-03-01T02:02:32;1.20;99.90
13606;DHT22;6874;52.084;5.090;2023-03-01T02:05:16;1.20;99.90
13606;DHT22;6874;52.084;5.090;2023-03-01T02:07:47;1.20;99.90
13606;DHT22;6874;52.084;5.090;2023-03-01T02:10:14;1.20;99.90
13606;DHT22;6874;52.084;5.090;2023-03-01T02:12:40;1.20;99.90
13606;DHT22;6874;52.084;5.090;2023-03-01T02:15:06;1.10;99.90
13606;DHT22;6874;52.084;5.090;2023-03-01T02:17:32;1.10;99.90
13606;DHT22;6874;52.084;5.090;2023-03-01T02:22:46;1.10;99.90
13606;DHT22;6874;52.084;5.090;2023-03-01T02:25:23;1.10;99.90
13606;DHT22;6874;52.084;5.090;2023-03-01T02:27:51;1.10;99.90
13606;DHT22;6874;52.084;5.090;2023-03-01T02:30:21;1.00;99.90
13606;DHT22;6874;52.084;5.090;2023-03-01T02:32:50;1.00;99.90
13606;DHT22;6874;52.084;5.090;2023-03-01T02:35:18;1.00;99.90
13606;DHT22;6874;52.084;5.090;2023-03-01T02:37:45;1.00;99.90
13606;DHT22;6874;52.084;5.090;2023-03-01T02:40:17;1.00;99.90
13606;DHT22;6874;52.084;5.090;2023-03-01T02:42:51;1.00;99.90
13606;DHT22;6874;52.084;5.090;2023-03-01T02:45:17;0.90;99.90
13606;DHT22;6874;52.084;5.090;2023-03-01T02:47:42;0.90;99.90
13606;DHT22;6874;52.084;5.090;2023-03-01T02:55:28;0.80;99.90
13606;DHT22;6874;52.084;5.090;2023-03-01T02:57:55;0.90;99.90
13606;DHT22;6874;52.084;5.090;2023-03-01T03:00:43;0.80;99.90
13606;DHT22;6874;52.084;5.090;2023-03-01T03:03:17;0.80;99.90
13606;DHT22;6874;52.084;5.090;2023-03-01T03:05:44;0.80;99.90
13606;DHT22;6874;52.084;5.090;2023-03-01T03:08:10;0.80;99.90
13606;DHT22;6874;52.084;5.090;2023-03-01T03:10:39;0.80;99.90
13606;DHT22;6874;52.084;5.090;2023-03-01T03:13:14;0.80;99.90
13606;DHT22;6874;52.084;5.090;2023-03-01T03:15:41;0.70;99.90
13606;DHT22;6874;52.084;5.090;2023-03-01T03:18:10;0.70;99.90
13606;DHT22;6874;52.084;5.090;2023-03-01T03:20:36;0.70;99.90
13606;DHT22;6874;52.084;5.090;2023-03-01T03:23:03;0.70;99.90
13606;DHT22;6874;52.084;5.090;2023-03-01T03:25:30;0.70;99.90
13606;DHT22;6874;52.084;5.090;2023-03-01T03:27:56;0.70;99.90
13606;DHT22;6874;52.084;5.090;2023-03-01T03:30:25;0.60;99.90
13606;DHT22;6874;52.084;5.090;2023-03-01T03:32:50;0.60;99.90
13606;DHT22;6874;52.084;5.090;2023-03-01T03:35:28;0.60;99.90
13606;DHT22;6874;52.084;5.090;2023-03-01T03:37:59;0.60;99.90
13606;DHT22;6874;52.084;5.090;2023-03-01T03:40:32;0.60;99.90
13606;DHT22;6874;52.084;5.090;2023-03-01T03:42:58;0.60;99.90
13606;DHT22;6874;52.084;5.090;2023-03-01T03:45:24;0.60;99.90
13606;DHT22;6874;52.084;5.090;2023-03-01T03:47:49;0.60;99.90
13606;DHT22;6874;52.084;5.090;2023-03-01T03:50:16;0.60;99.90
13606;DHT22;6874;52.084;5.090;2023-03-01T03:52:42;0.50;99.90
13606;DHT22;6874;52.084;5.090;2023-03-01T03:55:10;0.50;99.90
13606;DHT22;6874;52.084;5.090;2023-03-01T03:57:39;0.50;99.90
13606;DHT22;6874;52.084;5.090;2023-03-01T04:00:08;0.50;99.90
13606;DHT22;6874;52.084;5.090;2023-03-01T04:02:44;0.40;99.90
13606;DHT22;6874;52.084;5.090;2023-03-01T04:05:13;0.50;99.90
13606;DHT22;6874;52.084;5.090;2023-03-01T04:07:40;0.40;99.90
13606;DHT22;6874;52.084;5.090;2023-03-01T04:10:11;0.40;99.90
13606;DHT22;6874;52.084;5.090;2023-03-01T04:12:37;0.40;99.90
13606;DHT22;6874;52.084;5.090;2023-03-01T04:15:05;0.40;99.90
13606;DHT22;6874;52.084;5.090;2023-03-01T04:17:45;0.40;99.90
13606;DHT22;6874;52.084;5.090;2023-03-01T04:20:14;0.40;99.90
13606;DHT22;6874;52.084;5.090;2023-03-01T04:22:43;0.40;99.90
13606;DHT22;6874;52.084;5.090;2023-03-01T04:25:11;0.30;99.90
13606;DHT22;6874;52.084;5.090;2023-03-01T04:27:40;0.30;99.90
13606;DHT22;6874;52.084;5.090;2023-03-01T04:30:06;0.30;99.90
13606;DHT22;6874;52.084;5.090;2023-03-01T04:32:32;0.30;99.90
13606;DHT22;6874;52.084;5.090;2023-03-01T04:34:58;0.30;99.90
13606;DHT22;6874;52.084;5.090;2023-03-01T04:37:24;0.30;99.90
13606;DHT22;6874;52.084;5.090;2023-03-01T04:39:53;0.30;99.90
13606;DHT22;6874;52.084;5.090;2023-03-01T04:42:18;0.20;99.90
13606;DHT22;6874;52.084;5.090;2023-03-01T04:44:45;0.20;99.90
13606;DHT22;6874;52.084;5.090;2023-03-01T04:47:11;0.20;99.90
13606;DHT22;6874;52.084;5.090;2023-03-01T04:49:37;0.20;99.90
13606;DHT22;6874;52.084;5.090;2023-03-01T04:52:03;0.20;99.90
13606;DHT22;6874;52.084;5.090;2023-03-01T04:54:30;0.20;99.90
13606;DHT22;6874;52.084;5.090;2023-03-01T04:56:56;0.20;99.90
13606;DHT22;6874;52.084;5.090;2023-03-01T04:59:22;0.10;99.90
13606;DHT22;6874;52.084;5.090;2023-03-01T05:01:51;0.20;99.90
13606;DHT22;6874;52.084;5.090;2023-03-01T05:04:18;0.10;99.90
13606;DHT22;6874;52.084;5.090;2023-03-01T05:06:43;0.10;99.90
13606;DHT22;6874;52.084;5.090;2023-03-01T05:09:10;0.10;99.90
13606;DHT22;6874;52.084;5.090;2023-03-01T05:11:36;0.10;99.90
13606;DHT22;6874;52.084;5.090;2023-03-01T05:14:03;0.10;99.90
13606;DHT22;6874;52.084;5.090;2023-03-01T05:16:28;0.10;99.90
13606;DHT22;6874;52.084;5.090;2023-03-01T05:18:56;0.00;99.90
13606;DHT22;6874;52.084;5.090;2023-03-01T05:21:22;0.00;99.90
13606;DHT22;6874;52.084;5.090;2023-03-01T05:23:48;0.00;99.90
13606;DHT22;6874;52.084;5.090;2023-03-01T05:26:15;0.00;99.90
13606;DHT22;6874;52.084;5.090;2023-03-01T05:28:40;0.00;99.90
13606;DHT22;6874;52.084;5.090;2023-03-01T05:31:06;0.00;99.90
13606;DHT22;6874;52.084;5.090;2023-03-01T05:33:36;0.00;99.90
13606;DHT22;6874;52.084;5.090;2023-03-01T05:36:02;-0.10;99.90
13606;DHT22;6874;52.084;5.090;2023-03-01T05:38:28;-0.10;99.90
13606;DHT22;6874;52.084;5.090;2023-03-01T05:40:53;-0.10;99.90
13606;DHT22;6874;52.084;5.090;2023-03-01T05:43:19;-0.10;99.90
13606;DHT22;6874;52.084;5.090;2023-03-01T05:45:45;-0.10;99.90
13606;DHT22;6874;52.084;5.090;2023-03-01T05:48:12;-0.10;99.90
13606;DHT22;6874;52.084;5.090;2023-03-01T05:50:44;-0.20;99.90
13606;DHT22;6874;52.084;5.090;2023-03-01T05:53:14;-0.20;99.90
13606;DHT22;6874;52.084;5.090;2023-03-01T05:55:40;-0.20;99.90
13606;DHT22;6874;52.084;5.090;2023-03-01T05:58:11;-0.20;99.90
13606;DHT22;6874;52.084;5.090;2023-03-01T06:00:39;-0.20;99.90
13606;DHT22;6874;52.084;5.090;2023-03-01T06:03:05;-0.20;99.90
13606;DHT22;6874;52.084;5.090;2023-03-01T06:05:30;-0.30;99.90
13606;DHT22;6874;52.084;5.090;2023-03-01T06:07:59;-0.30;99.90
13606;DHT22;6874;52.084;5.090;2023-03-01T06:10:25;-0.30;99.90
13606;DHT22;6874;52.084;5.090;2023-03-01T06:12:50;-0.30;99.90
13606;DHT22;6874;52.084;5.090;2023-03-01T06:15:16;-0.30;99.90
13606;DHT22;6874;52.084;5.090;2023-03-01T06:17:43;-0.30;99.90
13606;DHT22;6874;52.084;5.090;2023-03-01T06:20:19;-0.40;99.90
13606;DHT22;6874;52.084;5.090;2023-03-01T06:22:46;-0.40;99.90
13606;DHT22;6874;52.084;5.090;2023-03-01T06:25:13;-0.40;99.90
13606;DHT22;6874;52.084;5.090;2023-03-01T06:27:40;-0.40;99.90
13606;DHT22;6874;52.084;5.090;2023-03-01T06:30:07;-0.40;99.90
13606;DHT22;6874;52.084;5.090;2023-03-01T06:32:33;-0.40;99.90
13606;DHT22;6874;52.084;5.090;2023-03-01T06:34:59;-0.40;99.90
13606;DHT22;6874;52.084;5.090;2023-03-01T06:37:25;-0.40;99.90
13606;DHT22;6874;52.084;5.090;2023-03-01T06:39:51;-0.50;99.90
13606;DHT22;6874;52.084;5.090;2023-03-01T06:42:16;-0.50;99.90
13606;DHT22;6874;52.084;5.090;2023-03-01T06:44:43;-0.50;99.90
13606;DHT22;6874;52.084;5.090;2023-03-01T06:47:09;-0.50;99.90
13606;DHT22;6874;52.084;5.090;2023-03-01T06:49:34;-0.50;99.90
13606;DHT22;6874;52.084;5.090;2023-03-01T06:52:00;-0.50;99.90
13606;DHT22;6874;52.084;5.090;2023-03-01T06:54:25;-0.50;99.90
13606;DHT22;6874;52.084;5.090;2023-03-01T06:56:51;-0.50;99.90
13606;DHT22;6874;52.084;5.090;2023-03-01T06:59:17;-0.50;99.90
13606;DHT22;6874;52.084;5.090;2023-03-01T07:01:43;-0.50;99.90
13606;DHT22;6874;52.084;5.090;2023-03-01T07:04:10;-0.50;99.90
13606;DHT22;6874;52.084;5.090;2023-03-01T07:06:35;-0.50;99.90
13606;DHT22;6874;52.084;5.090;2023-03-01T07:09:01;-0.60;99.90
13606;DHT22;6874;52.084;5.090;2023-03-01T07:11:26;-0.60;99.90
13606;DHT22;6874;52.084;5.090;2023-03-01T07:13:52;-0.60;99.90
13606;DHT22;6874;52.084;5.090;2023-03-01T07:16:18;-0.60;99.90
13606;DHT22;6874;52.084;5.090;2023-03-01T07:18:44;-0.60;99.90
13606;DHT22;6874;52.084;5.090;2023-03-01T07:21:12;-0.60;99.90
13606;DHT22;6874;52.084;5.090;2023-03-01T07:23:38;-0.60;99.90
13606;DHT22;6874;52.084;5.090;2023-03-01T07:26:04;-0.60;99.90
13606;DHT22;6874;52.084;5.090;2023-03-01T07:28:30;-0.60;99.90
13606;DHT22;6874;52.084;5.090;2023-03-01T07:31:04;-0.60;99.90
13606;DHT22;6874;52.084;5.090;2023-03-01T07:33:29;-0.60;99.90
13606;DHT22;6874;52.084;5.090;2023-03-01T07:35:57;-0.60;99.90
13606;DHT22;6874;52.084;5.090;2023-03-01T07:38:23;-0.60;99.90
13606;DHT22;6874;52.084;5.090;2023-03-01T07:40:48;-0.60;99.90
13606;DHT22;6874;52.084;5.090;2023-03-01T07:43:14;-0.60;99.90
13606;DHT22;6874;52.084;5.090;2023-03-01T07:45:40;-0.60;99.90
13606;DHT22;6874;52.084;5.090;2023-03-01T07:48:05;-0.60;99.90
13606;DHT22;6874;52.084;5.090;2023-03-01T07:50:31;-0.60;99.90
13606;DHT22;6874;52.084;5.090;2023-03-01T07:52:57;-0.50;99.90
13606;DHT22;6874;52.084;5.090;2023-03-01T07:55:22;-0.60;99.90
13606;DHT22;6874;52.084;5.090;2023-03-01T07:57:48;-0.60;99.90
13606;DHT22;6874;52.084;5.090;2023-03-01T08:00:14;-0.50;99.90
13606;DHT22;6874;52.084;5.090;2023-03-01T08:02:39;-0.50;99.90
13606;DHT22;6874;52.084;5.090;2023-03-01T08:05:07;-0.50;99.90
13606;DHT22;6874;52.084;5.090;2023-03-01T08:07:34;-0.50;99.90
13606;DHT22;6874;52.084;5.090;2023-03-01T08:09:59;-0.50;99.90
13606;DHT22;6874;52.084;5.090;2023-03-01T08:12:25;-0.50;99.90
13606;DHT22;6874;52.084;5.090;2023-03-01T08:14:52;-0.50;99.90
13606;DHT22;6874;52.084;5.090;2023-03-01T08:17:18;-0.50;99.90
13606;DHT22;6874;52.084;5.090;2023-03-01T08:19:44;-0.50;99.90
13606;DHT22;6874;52.084;5.090;2023-03-01T08:22:10;-0.50;99.90
13606;DHT22;6874;52.084;5.090;2023-03-01T08:24:36;-0.40;99.90
13606;DHT22;6874;52.084;5.090;2023-03-01T08:27:01;-0.40;99.90
13606;DHT22;6874;52.084;5.090;2023-03-01T08:29:30;-0.40;99.90
13606;DHT22;6874;52.084;5.090;2023-03-01T08:31:55;-0.40;99.90
13606;DHT22;6874;52.084;5.090;2023-03-01T08:34:21;-0.30;99.90
13606;DHT22;6874;52.084;5.090;2023-03-01T08:36:46;-0.30;99.90
13606;DHT22;6874;52.084;5.090;2023-03-01T08:39:14;-0.30;99.90
13606;DHT22;6874;52.084;5.090;2023-03-01T08:41:40;-0.30;99.90
13606;DHT22;6874;52.084;5.090;2023-03-01T08:44:06;-0.20;99.90
13606;DHT22;6874;52.084;5.090;2023-03-01T08:46:34;-0.20;99.90
13606;DHT22;6874;52.084;5.090;2023-03-01T08:49:13;-0.20;99.90
13606;DHT22;6874;52.084;5.090;2023-03-01T08:51:39;-0.20;99.90
13606;DHT22;6874;52.084;5.090;2023-03-01T08:54:07;-0.20;99.90
13606;DHT22;6874;52.084;5.090;2023-03-01T08:56:33;-0.10;99.90
13606;DHT22;6874;52.084;5.090;2023-03-01T08:58:59;-0.10;99.90
13606;DHT22;6874;52.084;5.090;2023-03-01T09:01:25;-0.10;99.90
13606;DHT22;6874;52.084;5.090;2023-03-01T09:03:50;0.00;99.90
13606;DHT22;6874;52.084;5.090;2023-03-01T09:06:16;0.00;99.90
13606;DHT22;6874;52.084;5.090;2023-03-01T09:08:44;0.00;99.90
13606;DHT22;6874;52.084;5.090;2023-03-01T09:11:12;0.00;99.90
13606;DHT22;6874;52.084;5.090;2023-03-01T09:13:37;0.00;99.90
13606;DHT22;6874;52.084;5.090;2023-03-01T09:16:05;0.10;99.90
13606;DHT22;6874;52.084;5.090;2023-03-01T09:18:31;0.10;99.90
13606;DHT22;6874;52.084;5.090;2023-03-01T09:21:09;0.10;99.90
13606;DHT22;6874;52.084;5.090;2023-03-01T09:23:37;0.20;99.90
13606;DHT22;6874;52.084;5.090;2023-03-01T09:26:14;0.20;99.90
13606;DHT22;6874;52.084;5.090;2023-03-01T09:28:42;0.20;99.90
13606;DHT22;6874;52.084;5.090;2023-03-01T09:31:08;0.30;99.90
13606;DHT22;6874;52.084;5.090;2023-03-01T09:33:34;0.30;99.90
13606;DHT22;6874;52.084;5.090;2023-03-01T09:36:04;0.30;99.90
13606;DHT22;6874;52.084;5.090;2023-03-01T09:38:31;0.30;99.90
13606;DHT22;6874;52.084;5.090;2023-03-01T09:40:57;0.30;99.90
13606;DHT22;6874;52.084;5.090;2023-03-01T09:43:52;0.40;99.90
13606;DHT22;6874;52.084;5.090;2023-03-01T09:46:21;0.40;99.90
13606;DHT22;6874;52.084;5.090;2023-03-01T09:49:11;0.50;99.90
13606;DHT22;6874;52.084;5.090;2023-03-01T09:51:37;0.50;99.90
13606;DHT22;6874;52.084;5.090;2023-03-01T09:54:04;0.50;99.90
13606;DHT22;6874;52.084;5.090;2023-03-01T09:56:40;0.60;99.90
13606;DHT22;6874;52.084;5.090;2023-03-01T09:59:23;0.60;99.90
13606;DHT22;6874;52.084;5.090;2023-03-01T10:01:59;0.60;99.90
13606;DHT22;6874;52.084;5.090;2023-03-01T10:04:45;0.60;99.90
13606;DHT22;6874;52.084;5.090;2023-03-01T10:08:19;0.70;99.90
13606;DHT22;6874;52.084;5.090;2023-03-01T10:10:37;0.70;99.90
13606;DHT22;6874;52.084;5.090;2023-03-01T10:13:13;0.80;99.90
13606;DHT22;6874;52.084;5.090;2023-03-01T10:15:44;0.80;99.90
13606;DHT22;6874;52.084;5.090;2023-03-01T10:18:16;0.80;99.90
13606;DHT22;6874;52.084;5.090;2023-03-01T10:21:03;0.90;99.90
13606;DHT22;6874;52.084;5.090;2023-03-01T10:23:34;0.90;99.90
13606;DHT22;6874;52.084;5.090;2023-03-01T10:26:17;1.00;99.90
13606;DHT22;6874;52.084;5.090;2023-03-01T10:31:32;1.00;99.90
13606;DHT22;6874;52.084;5.090;2023-03-01T10:34:13;1.10;99.90
13606;DHT22;6874;52.084;5.090;2023-03-01T10:36:40;1.10;99.90
13606;DHT22;6874;52.084;5.090;2023-03-01T10:39:13;1.20;99.90
13606;DHT22;6874;52.084;5.090;2023-03-01T10:41:57;1.20;99.90
13606;DHT22;6874;52.084;5.090;2023-03-01T10:44:37;1.30;99.90
13606;DHT22;6874;52.084;5.090;2023-03-01T10:47:03;1.30;99.90
13606;DHT22;6874;52.084;5.090;2023-03-01T10:49:29;1.50;99.90
13606;DHT22;6874;52.084;5.090;2023-03-01T10:51:55;1.40;99.90
13606;DHT22;6874;52.084;5.090;2023-03-01T10:54:29;1.40;99.90
13606;DHT22;6874;52.084;5.090;2023-03-01T10:56:58;1.50;99.90
13606;DHT22;6874;52.084;5.090;2023-03-01T10:59:32;1.50;99.90
13606;DHT22;6874;52.084;5.090;2023-03-01T11:02:29;1.60;99.90
13606;DHT22;6874;52.084;5.090;2023-03-01T11:07:48;1.70;99.90
13606;DHT22;6874;52.084;5.090;2023-03-01T11:10:32;1.70;99.90
13606;DHT22;6874;52.084;5.090;2023-03-01T11:13:18;1.80;99.90
13606;DHT22;6874;52.084;5.090;2023-03-01T11:16:00;1.90;99.90
13606;DHT22;6874;52.084;5.090;2023-03-01T11:18:27;1.90;99.90
13606;DHT22;6874;52.084;5.090;2023-03-01T11:20:55;2.00;99.90
13606;DHT22;6874;52.084;5.090;2023-03-01T11:23:21;2.00;99.90
13606;DHT22;6874;52.084;5.090;2023-03-01T11:25:56;2.10;99.90
13606;DHT22;6874;52.084;5.090;2023-03-01T11:28:22;2.20;99.90
13606;DHT22;6874;52.084;5.090;2023-03-01T11:31:19;2.20;99.90
13606;DHT22;6874;52.084;5.090;2023-03-01T11:34:09;2.30;99.90
13606;DHT22;6874;52.084;5.090;2023-03-01T11:36:58;2.40;99.90
13606;DHT22;6874;52.084;5.090;2023-03-01T11:39:47;2.50;99.90
13606;DHT22;6874;52.084;5.090;2023-03-01T11:45:10;2.80;99.90
13606;DHT22;6874;52.084;5.090;2023-03-01T11:50:31;3.10;99.90
13606;DHT22;6874;52.084;5.090;2023-03-01T11:53:13;3.30;99.90
13606;DHT22;6874;52.084;5.090;2023-03-01T11:56:11;3.50;99.90
13606;DHT22;6874;52.084;5.090;2023-03-01T12:10:27;4.50;99.90
13606;DHT22;6874;52.084;5.090;2023-03-01T12:12:58;4.70;99.90
13606;DHT22;6874;52.084;5.090;2023-03-01T12:34:34;5.60;99.90
13606;DHT22;6874;52.084;5.090;2023-03-01T12:42:38;5.90;99.90
13606;DHT22;6874;52.084;5.090;2023-03-01T12:48:30;6.00;99.90
13606;DHT22;6874;52.084;5.090;2023-03-01T12:51:01;6.10;99.90
13606;DHT22;6874;52.084;5.090;2023-03-01T12:56:32;6.20;99.90
13606;DHT22;6874;52.084;5.090;2023-03-01T12:59:14;6.20;99.90
13606;DHT22;6874;52.084;5.090;2023-03-01T13:02:05;6.30;99.90
13606;DHT22;6874;52.084;5.090;2023-03-01T13:07:34;6.40;99.90
13606;DHT22;6874;52.084;5.090;2023-03-01T13:15:35;6.60;99.90
13606;DHT22;6874;52.084;5.090;2023-03-01T13:20:47;6.80;99.90
13606;DHT22;6874;52.084;5.090;2023-03-01T13:31:05;7.10;99.90
13606;DHT22;6874;52.084;5.090;2023-03-01T13:36:00;7.20;99.90
13606;DHT22;6874;52.084;5.090;2023-03-01T13:38:55;7.20;99.90
13606;DHT22;6874;52.084;5.090;2023-03-01T13:49:41;7.40;99.90
13606;DHT22;6874;52.084;5.090;2023-03-01T13:57:39;7.60;99.90
13606;DHT22;6874;52.084;5.090;2023-03-01T14:00:06;7.60;99.90
13606;DHT22;6874;52.084;5.090;2023-03-01T14:02:32;7.70;99.90
13606;DHT22;6874;52.084;5.090;2023-03-01T14:05:00;7.70;99.90
13606;DHT22;6874;52.084;5.090;2023-03-01T14:07:27;7.70;99.90
13606;DHT22;6874;52.084;5.090;2023-03-01T14:10:04;7.80;99.90
13606;DHT22;6874;52.084;5.090;2023-03-01T14:12:46;7.80;99.90
13606;DHT22;6874;52.084;5.090;2023-03-01T14:20:23;7.90;99.90
13606;DHT22;6874;52.084;5.090;2023-03-01T14:22:52;7.90;99.90
13606;DHT22;6874;52.084;5.090;2023-03-01T14:25:37;8.00;99.90
13606;DHT22;6874;52.084;5.090;2023-03-01T14:28:28;8.00;99.90
13606;DHT22;6874;52.084;5.090;2023-03-01T14:30:56;8.00;99.90
13606;DHT22;6874;52.084;5.090;2023-03-01T14:36:00;8.10;99.90
13606;DHT22;6874;52.084;5.090;2023-03-01T14:38:39;8.10;99.90
13606;DHT22;6874;52.084;5.090;2023-03-01T14:41:20;8.10;99.90
13606;DHT22;6874;52.084;5.090;2023-03-01T14:43:52;8.20;99.90
13606;DHT22;6874;52.084;5.090;2023-03-01T14:46:29;8.20;99.90
13606;DHT22;6874;52.084;5.090;2023-03-01T14:49:01;8.20;99.90
13606;DHT22;6874;52.084;5.090;2023-03-01T14:51:27;8.20;99.90
13606;DHT22;6874;52.084;5.090;2023-03-01T14:53:53;8.20;99.90
13606;DHT22;6874;52.084;5.090;2023-03-01T14:56:19;8.20;99.90
13606;DHT22;6874;52.084;5.090;2023-03-01T14:58:46;8.20;99.90
13606;DHT22;6874;52.084;5.090;2023-03-01T15:01:17;8.20;99.90
13606;DHT22;6874;52.084;5.090;2023-03-01T15:03:48;8.20;99.90
13606;DHT22;6874;52.084;5.090;2023-03-01T15:06:22;8.20;99.90
13606;DHT22;6874;52.084;5.090;2023-03-01T15:08:50;8.20;99.90
13606;DHT22;6874;52.084;5.090;2023-03-01T15:11:31;8.20;99.90
13606;DHT22;6874;52.084;5.090;2023-03-01T15:13:58;8.20;99.90
13606;DHT22;6874;52.084;5.090;2023-03-01T15:16:29;8.20;99.90
13606;DHT22;6874;52.084;5.090;2023-03-01T15:19:04;8.20;99.90
13606;DHT22;6874;52.084;5.090;2023-03-01T15:21:36;8.20;99.90
13606;DHT22;6874;52.084;5.090;2023-03-01T15:29:24;8.20;99.90
13606;DHT22;6874;52.084;5.090;2023-03-01T15:32:00;8.20;99.90
13606;DHT22;6874;52.084;5.090;2023-03-01T15:34:36;8.10;99.90
13606;DHT22;6874;52.084;5.090;2023-03-01T15:37:04;8.10;99.90
13606;DHT22;6874;52.084;5.090;2023-03-01T15:39:53;8.00;99.90
13606;DHT22;6874;52.084;5.090;2023-03-01T15:47:39;7.90;99.90
13606;DHT22;6874;52.084;5.090;2023-03-01T15:50:12;7.90;99.90
13606;DHT22;6874;52.084;5.090;2023-03-01T15:52:41;7.90;99.90
13606;DHT22;6874;52.084;5.090;2023-03-01T15:55:40;7.80;99.90
13606;DHT22;6874;52.084;5.090;2023-03-01T15:58:10;7.80;99.90
13606;DHT22;6874;52.084;5.090;2023-03-01T16:00:37;7.70;99.90
13606;DHT22;6874;52.084;5.090;2023-03-01T16:03:04;7.70;99.90
13606;DHT22;6874;52.084;5.090;2023-03-01T16:05:32;7.70;99.90
13606;DHT22;6874;52.084;5.090;2023-03-01T16:08:00;7.60;99.90
13606;DHT22;6874;52.084;5.090;2023-03-01T16:10:26;7.60;99.90
13606;DHT22;6874;52.084;5.090;2023-03-01T16:12:52;7.50;99.90
13606;DHT22;6874;52.084;5.090;2023-03-01T16:17:45;7.50;99.90
13606;DHT22;6874;52.084;5.090;2023-03-01T16:20:11;7.40;99.90
13606;DHT22;6874;52.084;5.090;2023-03-01T16:22:37;7.40;99.90
13606;DHT22;6874;52.084;5.090;2023-03-01T16:25:03;7.40;99.90
13606;DHT22;6874;52.084;5.090;2023-03-01T16:27:28;7.30;99.90
13606;DHT22;6874;52.084;5.090;2023-03-01T16:29:54;7.30;99.90
13606;DHT22;6874;52.084;5.090;2023-03-01T16:32:20;7.30;99.90
13606;DHT22;6874;52.084;5.090;2023-03-01T16:34:45;7.20;99.90
13606;DHT22;6874;52.084;5.090;2023-03-01T16:37:14;7.20;99.90
13606;DHT22;6874;52.084;5.090;2023-03-01T16:39:40;7.10;99.90
13606;DHT22;6874;52.084;5.090;2023-03-01T16:42:05;7.10;99.90
13606;DHT22;6874;52.084;5.090;2023-03-01T16:44:31;7.10;99.90
13606;DHT22;6874;52.084;5.090;2023-03-01T16:46:57;7.00;99.90
13606;DHT22;6874;52.084;5.090;2023-03-01T16:49:22;7.00;99.90
13606;DHT22;6874;52.084;5.090;2023-03-01T16:51:48;6.90;99.90
13606;DHT22;6874;52.084;5.090;2023-03-01T16:54:13;6.90;99.90
13606;DHT22;6874;52.084;5.090;2023-03-01T16:56:39;6.80;99.90
13606;DHT22;6874;52.084;5.090;2023-03-01T16:59:06;6.80;99.90
13606;DHT22;6874;52.084;5.090;2023-03-01T17:01:32;6.80;99.90
13606;DHT22;6874;52.084;5.090;2023-03-01T17:04:06;6.70;99.90
13606;DHT22;6874;52.084;5.090;2023-03-01T17:06:35;6.70;99.90
13606;DHT22;6874;52.084;5.090;2023-03-01T17:09:01;6.60;99.90
13606;DHT22;6874;52.084;5.090;2023-03-01T17:11:26;6.60;99.90
13606;DHT22;6874;52.084;5.090;2023-03-01T17:13:52;6.60;99.90
13606;DHT22;6874;52.084;5.090;2023-03-01T17:16:19;6.50;99.90
13606;DHT22;6874;52.084;5.090;2023-03-01T17:18:45;6.50;99.90
13606;DHT22;6874;52.084;5.090;2023-03-01T17:21:11;6.50;99.90
13606;DHT22;6874;52.084;5.090;2023-03-01T17:23:40;6.50;99.90
13606;DHT22;6874;52.084;5.090;2023-03-01T17:26:06;6.40;99.90
13606;DHT22;6874;52.084;5.090;2023-03-01T17:28:34;6.30;99.90
13606;DHT22;6874;52.084;5.090;2023-03-01T17:31:03;6.30;99.90
13606;DHT22;6874;52.084;5.090;2023-03-01T17:33:29;6.30;99.90
13606;DHT22;6874;52.084;5.090;2023-03-01T17:35:58;6.30;99.90
13606;DHT22;6874;52.084;5.090;2023-03-01T17:38:24;6.20;99.90
13606;DHT22;6874;52.084;5.090;2023-03-01T17:40:50;6.20;99.90
13606;DHT22;6874;52.084;5.090;2023-03-01T17:43:16;6.10;99.90
13606;DHT22;6874;52.084;5.090;2023-03-01T17:45:43;6.10;99.90
13606;DHT22;6874;52.084;5.090;2023-03-01T17:48:13;6.10;99.90
13606;DHT22;6874;52.084;5.090;2023-03-01T17:50:39;6.00;99.90
13606;DHT22;6874;52.084;5.090;2023-03-01T17:53:08;6.00;99.90
13606;DHT22;6874;52.084;5.090;2023-03-01T17:55:35;6.00;99.90
13606;DHT22;6874;52.084;5.090;2023-03-01T17:58:02;5.90;99.90
13606;DHT22;6874;52.084;5.090;2023-03-01T18:00:27;5.90;99.90
13606;DHT22;6874;52.084;5.090;2023-03-01T18:02:53;5.90;99.90
13606;DHT22;6874;52.084;5.090;2023-03-01T18:05:19;5.80;99.90
13606;DHT22;6874;52.084;5.090;2023-03-01T18:07:44;5.80;99.90
13606;DHT22;6874;52.084;5.090;2023-03-01T18:10:10;5.70;99.90